Terminal Aerodrome Forecast
Issued by NWS

Home | Current Version | Previous Version | Text Only | Print | Product List | Glossary On
Versions: 1 2 3 4 5 6 7 8 9 10 11 12 13 14 15 16 17 18 19 20 21 22 23 24 25 26 27 28 29 30 31 32
000
FTUS45 KVEF 282225 AAB
TAFLAS
TAF AMD
KLAS 282225Z 2822/2918 08010KT P6SM VCSH SCT050 BKN070
      TEMPO 2823/2901 36015G25KT -TSRA BKN050CB
     FM290400 31007KT P6SM FEW060 BKN100
     FM291500 VRB06KT P6SM FEW070 SCT110=

USA.gov is the U.S. government's official web portal to all federal, state and local government web resources and services.